Карточка аэропорта UATT

Внимание!
Информация на этой странице в стадии наполнения.
Если вы не увидели какой-то информации, или заметили неточность - пожалуйста сообщите нам!
Спасибо!
Команда RU-STAFF
Название аэропортаАктобе
Название аэропорта (англ.)Aktobe
Превышение738 ft. (224.9 m.)
Координаты50°14.748', 57°12.402'
Высота перехода10000ft
Эшелон переходаFL120, QNH<733:FL130
Коды ответчика3440-3447, 3540-3547
Зона ОрВДАктобе РПИ (UATT)
Данные METARUATT 290730Z 13009MPS 9999 -SHRA BKN068CB 04/02 Q1021 NOSIG RMK QFE746/0994
Проноз погоды (TAF)UATT 290504Z 2906/3006 12006MPS 5000 -SHRA BKN033CB TX14/2912Z TN05/3002Z TEMPO 2906/2913 15011MPS 3100 SCT011 BKN033CB TEMPO 2916/2924 16010MPS 3100 BKN011 BKN020CB TEMPO 3000/3006 18005MPS 3100 BR SCT011
NOTAMshow/hide NOTAM
AWOS   TABLE

Информация о ВПП

ВПП Длина ВПП (м.) Покрытие Курс ВПП Частота ILS
133202Бетон135111.7
313202Бетон315111.7

Диспетчерские позиции




Спутниковое изображение